Portada
METAR-TAF:

METAR-TAF

Aeroports :

Hohhot, Xina

latitud: 40-49N, longitud: 111-41E, altitud: 1065 m

Observació

L'informe es va fer fa 24 minuts, a les 07:00 UTC
Vent 4 kt del Nord-Oest, variant entre Oest/Sud-Oest i Nord
Temperatura 8°C
Humitat 53%
Pressió 1013 hPa
Visibilitat: 4800 m
Escasses núvols a una alçada de 3300 ft
calitja

METAR: ZBHH 280700Z 31002MPS 250V350 4800 HZ FEW033 08/M01 Q1013 NOSIG

Hora: 15:24 (07:24 UTC)

Pronòstic

L'informe es va fer fa 4 hores i 13 minuts, a les 03:11 UTC
Pronòstic vàlid del 28 a les 06 UTC al 29 a les 06 UTC
Vent 8 kt del Sud-Oest
Visibilitat: 3500 m
Núvols disperses a una alçada de 3000 ft
boirina

TAF: ZBHH 280311Z 2806/2906 23004MPS 3500 BR SCT030 TX06/2807Z TNM01/2823Z

Observacions i pronòstics meteorològics de més de 4000 aeroports (METAR i TAF).

Les estacions disponibles són els punts grocs i vermells al mapa.

Posi el ratolí al punt desitjat per veure el nom de l'estació.

Feu clic per veure les observacions i els pronòstics meteorològics.

Per canviar el mapa: feu clic els botons verds amb una creu de color negre per apropar; al botó verd amb un guió per allunyar la imatge; o en les fletxes verdes per a mapes adjacents.


METAR-TAF: